Drummond Island, MI

7:21 PM EST on December 27, 2014 (GMT -0500)
Presque Isle County | Change Station
CLOSE
Current Station
Airport
Location: Rogers City,
Elevation: 669 ft
Nearby Weather Stations

Elev 669 ft 45.41 °N, 83.81 °W | Updated 7 minutes ago

Light Rain
Light Rain
33 °F
Feels Like 25 °F
N
10
Wind Variable Wind from WNW

Today
High -- | Low -- °F
--% Chance of Precip.
Yesterday
High -- | Low -- °F
Precip. -- in
8:16 AM 4:55 PM
Waxing Crescent, 41% visible
Pressure 29.82 in
Visibility 5.0 miles
Clouds Mostly Cloudy 1200 ft
Mostly Cloudy 1900 ft
Overcast 4400 ft
Windchill 25 °F
Dew Point 33 °F
Humidity 98%
Rainfall 0.00 in
Snow Depth Not available.
UV 0 out of 12
Pollen .10 out of 12
Air Quality Not available.
Flu Activity Not available.
METAR KPZQ 280014Z AUTO 29009KT 5SM -RA BKN012 BKN019 OVC044 01/01 A2982 RMK AO2 T00080005

More Conditions Fewer Conditions

Pressure 29.82 in
Visibility 5.0 miles
Clouds Mostly Cloudy 1200 ft
Mostly Cloudy 1900 ft
Overcast 4400 ft
Windchill 25 °F
Dew Point 33 °F
Humidity 98%
Rainfall 0.00 in
Snow Depth Not available.
UV 0 out of 12
Pollen .10 out of 12
Air Quality Not available.
Flu Activity Not available.
METAR KPZQ 280014Z AUTO 29009KT 5SM -RA BKN012 BKN019 OVC044 01/01 A2982 RMK AO2 T00080005

More Conditions Fewer Conditions

Nowcast | as of 7:00 PM EST on December 27, 2014

At 8 PM...cloudy. Scattered snow showers. Temperature 32. Northwest winds 16 mph. At 10 PM...mostly cloudy. Chance of snow showers. Temperature 30. Northwest winds 16 mph. At 12 am...mostly cloudy. Chance of snow showers. Temperature 28. West winds 14 mph. At 2 am...mostly cloudy. Chance of snow showers. Temperature 27. West winds 12 mph.

×

10-Day Weather Forecast

Almanac

Astronomy

Dec. 27, 2014 Rise Set
Actual Time
Civil Twilight
Nautical Twilight
Astronomical Twilight
Moon
Length of Visible Light
Length of Day
Tomorrow will be .
, % of the Moon is Illuminated

Today's Extremes

State Highs State Lows

Community

WunderPhotos

Upload Photos

1,781,116 photos uploaded!

WunderBlogs® & News

Nearby

Air Quality

  Air Quality AQ Index Pollutant
Not available.

Snow Depth

Station Depth Elevation

Earthquake Activity

City Distance Mag. Time & Date
Minimum magnitude displayed is 2.5.

Coastal Water Temperatures

Place Temperature

Nearby Weather Stations